sensor_id;sensor_type;location;lat;lon;timestamp;P1;durP1;ratioP1;P2;durP2;ratioP2
56161;SDS011;42045;52.986;6.014;2023-07-28T00:01:56;30.50;;;17.73;;
56161;SDS011;42045;52.986;6.014;2023-07-28T00:04:21;30.55;;;17.83;;
56161;SDS011;42045;52.986;6.014;2023-07-28T00:06:47;32.42;;;17.45;;
56161;SDS011;42045;52.986;6.014;2023-07-28T00:09:13;32.50;;;17.40;;
56161;SDS011;42045;52.986;6.014;2023-07-28T00:11:38;34.70;;;17.40;;
56161;SDS011;42045;52.986;6.014;2023-07-28T00:14:04;34.47;;;18.40;;
56161;SDS011;42045;52.986;6.014;2023-07-28T00:16:30;34.72;;;17.30;;
56161;SDS011;42045;52.986;6.014;2023-07-28T00:18:55;33.97;;;18.15;;
56161;SDS011;42045;52.986;6.014;2023-07-28T00:21:21;31.42;;;17.17;;
56161;SDS011;42045;52.986;6.014;2023-07-28T00:23:47;27.00;;;16.50;;
56161;SDS011;42045;52.986;6.014;2023-07-28T00:26:13;31.85;;;18.70;;
56161;SDS011;42045;52.986;6.014;2023-07-28T00:28:38;26.35;;;17.45;;
56161;SDS011;42045;52.986;6.014;2023-07-28T00:31:04;34.88;;;18.05;;
56161;SDS011;42045;52.986;6.014;2023-07-28T00:33:30;42.17;;;20.58;;
56161;SDS011;42045;52.986;6.014;2023-07-28T00:35:55;32.95;;;18.13;;
56161;SDS011;42045;52.986;6.014;2023-07-28T00:38:21;31.10;;;18.17;;
56161;SDS011;42045;52.986;6.014;2023-07-28T00:40:47;34.72;;;19.10;;
56161;SDS011;42045;52.986;6.014;2023-07-28T00:43:12;34.35;;;19.00;;
56161;SDS011;42045;52.986;6.014;2023-07-28T00:45:38;42.65;;;20.45;;
56161;SDS011;42045;52.986;6.014;2023-07-28T00:48:04;37.42;;;18.60;;
56161;SDS011;42045;52.986;6.014;2023-07-28T00:50:35;29.77;;;17.52;;
56161;SDS011;42045;52.986;6.014;2023-07-28T00:53:01;31.10;;;18.88;;
56161;SDS011;42045;52.986;6.014;2023-07-28T00:55:27;34.28;;;18.80;;
56161;SDS011;42045;52.986;6.014;2023-07-28T00:57:52;41.40;;;19.10;;
56161;SDS011;42045;52.986;6.014;2023-07-28T01:00:18;36.67;;;20.23;;
56161;SDS011;42045;52.986;6.014;2023-07-28T01:02:44;33.78;;;20.30;;
56161;SDS011;42045;52.986;6.014;2023-07-28T01:05:10;34.85;;;19.27;;
56161;SDS011;42045;52.986;6.014;2023-07-28T01:07:36;43.33;;;20.40;;
56161;SDS011;42045;52.986;6.014;2023-07-28T01:10:07;32.53;;;20.08;;
56161;SDS011;42045;52.986;6.014;2023-07-28T01:15:02;43.58;;;17.27;;
56161;SDS011;42045;52.986;6.014;2023-07-28T01:17:28;33.95;;;17.27;;
56161;SDS011;42045;52.986;6.014;2023-07-28T01:19:54;33.00;;;17.25;;
56161;SDS011;42045;52.986;6.014;2023-07-28T01:27:48;28.98;;;15.75;;
56161;SDS011;42045;52.986;6.014;2023-07-28T01:30:16;34.05;;;15.50;;
56161;SDS011;42045;52.986;6.014;2023-07-28T01:32:42;28.85;;;14.00;;
56161;SDS011;42045;52.986;6.014;2023-07-28T01:35:08;32.00;;;14.15;;
56161;SDS011;42045;52.986;6.014;2023-07-28T01:37:33;23.00;;;13.15;;
56161;SDS011;42045;52.986;6.014;2023-07-28T01:39:59;29.90;;;12.70;;
56161;SDS011;42045;52.986;6.014;2023-07-28T01:42:26;30.83;;;14.73;;
56161;SDS011;42045;52.986;6.014;2023-07-28T01:44:51;28.58;;;12.38;;
56161;SDS011;42045;52.986;6.014;2023-07-28T01:47:17;36.33;;;13.98;;
56161;SDS011;42045;52.986;6.014;2023-07-28T01:49:43;24.08;;;13.32;;
56161;SDS011;42045;52.986;6.014;2023-07-28T01:52:08;29.00;;;12.75;;
56161;SDS011;42045;52.986;6.014;2023-07-28T01:54:34;30.75;;;13.23;;
56161;SDS011;42045;52.986;6.014;2023-07-28T01:57:00;32.33;;;12.63;;
56161;SDS011;42045;52.986;6.014;2023-07-28T01:59:25;29.52;;;12.18;;
56161;SDS011;42045;52.986;6.014;2023-07-28T02:01:51;25.17;;;10.68;;
56161;SDS011;42045;52.986;6.014;2023-07-28T02:04:16;21.90;;;10.93;;
56161;SDS011;42045;52.986;6.014;2023-07-28T02:06:42;26.40;;;11.73;;
56161;SDS011;42045;52.986;6.014;2023-07-28T02:09:08;26.95;;;11.90;;
56161;SDS011;42045;52.986;6.014;2023-07-28T02:11:34;27.35;;;10.50;;
56161;SDS011;42045;52.986;6.014;2023-07-28T02:13:59;22.42;;;10.18;;
56161;SDS011;42045;52.986;6.014;2023-07-28T02:16:25;24.55;;;11.57;;
56161;SDS011;42045;52.986;6.014;2023-07-28T02:18:53;25.45;;;10.95;;
56161;SDS011;42045;52.986;6.014;2023-07-28T02:21:19;27.67;;;11.27;;
56161;SDS011;42045;52.986;6.014;2023-07-28T02:23:44;25.23;;;10.80;;
56161;SDS011;42045;52.986;6.014;2023-07-28T02:26:10;25.58;;;11.75;;
56161;SDS011;42045;52.986;6.014;2023-07-28T02:28:36;27.38;;;10.95;;
56161;SDS011;42045;52.986;6.014;2023-07-28T02:31:02;31.35;;;12.55;;
56161;SDS011;42045;52.986;6.014;2023-07-28T02:33:27;25.17;;;10.00;;
56161;SDS011;42045;52.986;6.014;2023-07-28T02:35:55;31.35;;;11.30;;
56161;SDS011;42045;52.986;6.014;2023-07-28T02:38:21;22.50;;;10.88;;
56161;SDS011;42045;52.986;6.014;2023-07-28T02:40:47;25.83;;;10.45;;
56161;SDS011;42045;52.986;6.014;2023-07-28T02:43:12;25.83;;;10.60;;
56161;SDS011;42045;52.986;6.014;2023-07-28T02:45:38;28.42;;;12.05;;
56161;SDS011;42045;52.986;6.014;2023-07-28T02:48:04;28.38;;;11.82;;
56161;SDS011;42045;52.986;6.014;2023-07-28T02:50:30;27.10;;;11.48;;
56161;SDS011;42045;52.986;6.014;2023-07-28T02:52:55;27.05;;;10.63;;
56161;SDS011;42045;52.986;6.014;2023-07-28T02:55:21;19.90;;;9.32;;
56161;SDS011;42045;52.986;6.014;2023-07-28T02:57:47;22.30;;;10.55;;
56161;SDS011;42045;52.986;6.014;2023-07-28T03:00:12;28.45;;;9.55;;
56161;SDS011;42045;52.986;6.014;2023-07-28T03:02:39;24.10;;;9.73;;
56161;SDS011;42045;52.986;6.014;2023-07-28T03:05:04;23.23;;;10.73;;
56161;SDS011;42045;52.986;6.014;2023-07-28T03:07:30;23.20;;;9.98;;
56161;SDS011;42045;52.986;6.014;2023-07-28T03:09:56;30.27;;;9.95;;
56161;SDS011;42045;52.986;6.014;2023-07-28T03:12:22;24.65;;;9.93;;
56161;SDS011;42045;52.986;6.014;2023-07-28T03:14:48;29.27;;;10.27;;
56161;SDS011;42045;52.986;6.014;2023-07-28T03:17:13;28.15;;;10.70;;
56161;SDS011;42045;52.986;6.014;2023-07-28T03:19:39;29.80;;;10.45;;
56161;SDS011;42045;52.986;6.014;2023-07-28T03:22:04;28.20;;;11.85;;
56161;SDS011;42045;52.986;6.014;2023-07-28T03:24:30;26.73;;;11.43;;
56161;SDS011;42045;52.986;6.014;2023-07-28T03:26:56;32.58;;;11.23;;
56161;SDS011;42045;52.986;6.014;2023-07-28T03:29:21;27.55;;;11.80;;
56161;SDS011;42045;52.986;6.014;2023-07-28T03:31:47;28.45;;;12.55;;
56161;SDS011;42045;52.986;6.014;2023-07-28T03:34:13;29.60;;;11.95;;
56161;SDS011;42045;52.986;6.014;2023-07-28T03:36:38;27.77;;;10.70;;
56161;SDS011;42045;52.986;6.014;2023-07-28T03:39:04;31.23;;;10.65;;
56161;SDS011;42045;52.986;6.014;2023-07-28T03:41:30;33.35;;;11.35;;
56161;SDS011;42045;52.986;6.014;2023-07-28T03:43:56;28.25;;;10.00;;
56161;SDS011;42045;52.986;6.014;2023-07-28T03:46:22;24.83;;;11.20;;
56161;SDS011;42045;52.986;6.014;2023-07-28T03:48:47;26.77;;;10.88;;
56161;SDS011;42045;52.986;6.014;2023-07-28T03:51:13;26.95;;;10.93;;
56161;SDS011;42045;52.986;6.014;2023-07-28T03:53:38;23.55;;;11.77;;
56161;SDS011;42045;52.986;6.014;2023-07-28T03:56:04;26.60;;;11.00;;
56161;SDS011;42045;52.986;6.014;2023-07-28T03:58:30;20.55;;;10.25;;
56161;SDS011;42045;52.986;6.014;2023-07-28T04:00:56;25.33;;;11.82;;
56161;SDS011;42045;52.986;6.014;2023-07-28T04:03:22;30.40;;;10.32;;
56161;SDS011;42045;52.986;6.014;2023-07-28T04:05:47;25.15;;;10.70;;
56161;SDS011;42045;52.986;6.014;2023-07-28T04:08:13;20.17;;;9.93;;
56161;SDS011;42045;52.986;6.014;2023-07-28T04:10:39;21.17;;;10.15;;
56161;SDS011;42045;52.986;6.014;2023-07-28T04:13:04;30.42;;;11.25;;
56161;SDS011;42045;52.986;6.014;2023-07-28T04:15:30;27.88;;;11.93;;
56161;SDS011;42045;52.986;6.014;2023-07-28T04:17:56;36.67;;;11.85;;
56161;SDS011;42045;52.986;6.014;2023-07-28T04:20:21;30.30;;;11.07;;
56161;SDS011;42045;52.986;6.014;2023-07-28T04:22:47;33.05;;;12.25;;
56161;SDS011;42045;52.986;6.014;2023-07-28T04:25:13;26.50;;;11.88;;
56161;SDS011;42045;52.986;6.014;2023-07-28T04:27:38;28.67;;;11.95;;
56161;SDS011;42045;52.986;6.014;2023-07-28T04:30:04;32.13;;;12.93;;
56161;SDS011;42045;52.986;6.014;2023-07-28T04:32:30;27.95;;;12.38;;
56161;SDS011;42045;52.986;6.014;2023-07-28T04:34:56;27.00;;;10.85;;
56161;SDS011;42045;52.986;6.014;2023-07-28T04:37:22;26.50;;;10.88;;
56161;SDS011;42045;52.986;6.014;2023-07-28T04:39:47;28.52;;;10.90;;
56161;SDS011;42045;52.986;6.014;2023-07-28T04:42:13;29.20;;;11.57;;
56161;SDS011;42045;52.986;6.014;2023-07-28T04:44:39;31.10;;;11.68;;
56161;SDS011;42045;52.986;6.014;2023-07-28T04:47:05;25.40;;;10.73;;
56161;SDS011;42045;52.986;6.014;2023-07-28T04:49:31;25.10;;;12.05;;
56161;SDS011;42045;52.986;6.014;2023-07-28T04:51:57;21.60;;;10.75;;
56161;SDS011;42045;52.986;6.014;2023-07-28T04:54:22;28.88;;;10.50;;
56161;SDS011;42045;52.986;6.014;2023-07-28T04:56:48;20.38;;;9.88;;
56161;SDS011;42045;52.986;6.014;2023-07-28T04:59:18;25.83;;;10.57;;
56161;SDS011;42045;52.986;6.014;2023-07-28T05:01:43;27.35;;;10.45;;
56161;SDS011;42045;52.986;6.014;2023-07-28T05:04:09;18.40;;;10.25;;
56161;SDS011;42045;52.986;6.014;2023-07-28T05:06:35;23.98;;;10.63;;
56161;SDS011;42045;52.986;6.014;2023-07-28T05:09:00;21.75;;;9.05;;
56161;SDS011;42045;52.986;6.014;2023-07-28T05:11:26;22.77;;;9.20;;
56161;SDS011;42045;52.986;6.014;2023-07-28T05:13:52;22.42;;;9.77;;
56161;SDS011;42045;52.986;6.014;2023-07-28T05:16:17;23.13;;;9.57;;
56161;SDS011;42045;52.986;6.014;2023-07-28T05:18:43;24.08;;;8.73;;
56161;SDS011;42045;52.986;6.014;2023-07-28T05:21:09;24.08;;;10.48;;
56161;SDS011;42045;52.986;6.014;2023-07-28T05:23:34;15.63;;;8.43;;
56161;SDS011;42045;52.986;6.014;2023-07-28T05:26:00;21.58;;;9.18;;
56161;SDS011;42045;52.986;6.014;2023-07-28T05:28:26;21.70;;;9.20;;
56161;SDS011;42045;52.986;6.014;2023-07-28T05:30:51;14.77;;;9.15;;
56161;SDS011;42045;52.986;6.014;2023-07-28T05:33:17;18.02;;;8.15;;
56161;SDS011;42045;52.986;6.014;2023-07-28T05:35:42;21.30;;;8.95;;
56161;SDS011;42045;52.986;6.014;2023-07-28T05:38:08;20.23;;;8.30;;
56161;SDS011;42045;52.986;6.014;2023-07-28T05:40:34;18.35;;;8.02;;
56161;SDS011;42045;52.986;6.014;2023-07-28T05:42:59;15.25;;;8.23;;
56161;SDS011;42045;52.986;6.014;2023-07-28T05:45:25;17.05;;;7.68;;
56161;SDS011;42045;52.986;6.014;2023-07-28T05:47:51;19.35;;;8.50;;
56161;SDS011;42045;52.986;6.014;2023-07-28T05:50:16;19.38;;;8.30;;
56161;SDS011;42045;52.986;6.014;2023-07-28T05:52:42;16.70;;;8.25;;
56161;SDS011;42045;52.986;6.014;2023-07-28T05:55:08;15.68;;;7.70;;
56161;SDS011;42045;52.986;6.014;2023-07-28T05:57:34;12.60;;;7.05;;
56161;SDS011;42045;52.986;6.014;2023-07-28T05:59:59;12.48;;;7.63;;
56161;SDS011;42045;52.986;6.014;2023-07-28T06:02:25;11.75;;;8.15;;
56161;SDS011;42045;52.986;6.014;2023-07-28T06:04:51;9.38;;;7.97;;
56161;SDS011;42045;52.986;6.014;2023-07-28T06:07:17;13.65;;;8.20;;
56161;SDS011;42045;52.986;6.014;2023-07-28T06:09:42;13.68;;;7.88;;
56161;SDS011;42045;52.986;6.014;2023-07-28T06:12:08;14.15;;;8.07;;
56161;SDS011;42045;52.986;6.014;2023-07-28T06:14:34;10.30;;;6.97;;
56161;SDS011;42045;52.986;6.014;2023-07-28T06:17:00;12.68;;;7.97;;
56161;SDS011;42045;52.986;6.014;2023-07-28T06:19:26;12.32;;;7.45;;
56161;SDS011;42045;52.986;6.014;2023-07-28T06:21:51;10.20;;;7.75;;
56161;SDS011;42045;52.986;6.014;2023-07-28T06:24:17;11.65;;;7.72;;
56161;SDS011;42045;52.986;6.014;2023-07-28T06:26:43;12.75;;;8.10;;
56161;SDS011;42045;52.986;6.014;2023-07-28T06:29:09;11.75;;;8.30;;
56161;SDS011;42045;52.986;6.014;2023-07-28T06:31:35;11.82;;;9.13;;
56161;SDS011;42045;52.986;6.014;2023-07-28T06:34:00;9.90;;;8.10;;
56161;SDS011;42045;52.986;6.014;2023-07-28T06:36:26;13.77;;;7.13;;
56161;SDS011;42045;52.986;6.014;2023-07-28T06:38:52;14.57;;;6.72;;
56161;SDS011;42045;52.986;6.014;2023-07-28T06:41:20;11.82;;;6.65;;
56161;SDS011;42045;52.986;6.014;2023-07-28T06:43:46;13.05;;;6.20;;
56161;SDS011;42045;52.986;6.014;2023-07-28T06:46:13;13.60;;;6.57;;
56161;SDS011;42045;52.986;6.014;2023-07-28T06:48:39;10.25;;;5.70;;
56161;SDS011;42045;52.986;6.014;2023-07-28T06:51:06;11.43;;;6.60;;
56161;SDS011;42045;52.986;6.014;2023-07-28T06:53:31;12.77;;;6.05;;
56161;SDS011;42045;52.986;6.014;2023-07-28T06:55:57;8.85;;;6.57;;
56161;SDS011;42045;52.986;6.014;2023-07-28T06:58:23;14.55;;;6.85;;
56161;SDS011;42045;52.986;6.014;2023-07-28T07:00:48;11.15;;;6.82;;
56161;SDS011;42045;52.986;6.014;2023-07-28T07:03:14;10.43;;;6.30;;
56161;SDS011;42045;52.986;6.014;2023-07-28T07:05:40;9.68;;;6.07;;
56161;SDS011;42045;52.986;6.014;2023-07-28T07:08:05;9.98;;;5.80;;
56161;SDS011;42045;52.986;6.014;2023-07-28T07:10:31;12.88;;;6.20;;
56161;SDS011;42045;52.986;6.014;2023-07-28T07:12:57;11.48;;;5.38;;
56161;SDS011;42045;52.986;6.014;2023-07-28T07:15:23;9.07;;;5.57;;
56161;SDS011;42045;52.986;6.014;2023-07-28T07:17:48;7.68;;;4.97;;
56161;SDS011;42045;52.986;6.014;2023-07-28T07:20:14;8.02;;;5.50;;
56161;SDS011;42045;52.986;6.014;2023-07-28T07:22:40;8.68;;;5.95;;
56161;SDS011;42045;52.986;6.014;2023-07-28T07:25:06;12.10;;;5.53;;
56161;SDS011;42045;52.986;6.014;2023-07-28T07:27:32;10.00;;;5.13;;
56161;SDS011;42045;52.986;6.014;2023-07-28T07:29:58;9.93;;;5.35;;
56161;SDS011;42045;52.986;6.014;2023-07-28T07:32:24;8.65;;;5.60;;
56161;SDS011;42045;52.986;6.014;2023-07-28T07:34:49;7.60;;;5.10;;
56161;SDS011;42045;52.986;6.014;2023-07-28T07:37:15;9.07;;;5.07;;
56161;SDS011;42045;52.986;6.014;2023-07-28T07:39:41;9.02;;;5.90;;
56161;SDS011;42045;52.986;6.014;2023-07-28T07:42:09;11.20;;;6.63;;
56161;SDS011;42045;52.986;6.014;2023-07-28T07:44:35;10.25;;;6.50;;
56161;SDS011;42045;52.986;6.014;2023-07-28T07:47:01;10.00;;;6.35;;
56161;SDS011;42045;52.986;6.014;2023-07-28T07:49:38;10.88;;;6.68;;
56161;SDS011;42045;52.986;6.014;2023-07-28T07:52:04;9.68;;;5.85;;
56161;SDS011;42045;52.986;6.014;2023-07-28T07:54:31;8.55;;;5.68;;
56161;SDS011;42045;52.986;6.014;2023-07-28T07:56:57;10.60;;;5.72;;
56161;SDS011;42045;52.986;6.014;2023-07-28T07:59:22;11.35;;;6.15;;
56161;SDS011;42045;52.986;6.014;2023-07-28T08:01:52;7.65;;;5.78;;
56161;SDS011;42045;52.986;6.014;2023-07-28T08:04:18;15.88;;;6.32;;
56161;SDS011;42045;52.986;6.014;2023-07-28T08:06:43;9.80;;;5.35;;
56161;SDS011;42045;52.986;6.014;2023-07-28T08:09:09;7.82;;;5.55;;
56161;SDS011;42045;52.986;6.014;2023-07-28T08:11:35;9.55;;;5.90;;
56161;SDS011;42045;52.986;6.014;2023-07-28T08:14:00;12.05;;;5.35;;
56161;SDS011;42045;52.986;6.014;2023-07-28T08:16:26;9.85;;;5.13;;
56161;SDS011;42045;52.986;6.014;2023-07-28T08:18:52;10.27;;;4.82;;
56161;SDS011;42045;52.986;6.014;2023-07-28T08:21:17;8.05;;;5.05;;
56161;SDS011;42045;52.986;6.014;2023-07-28T08:23:43;11.23;;;6.00;;
56161;SDS011;42045;52.986;6.014;2023-07-28T08:26:09;9.43;;;5.95;;
56161;SDS011;42045;52.986;6.014;2023-07-28T08:28:34;12.27;;;6.40;;
56161;SDS011;42045;52.986;6.014;2023-07-28T08:31:00;13.15;;;5.78;;
56161;SDS011;42045;52.986;6.014;2023-07-28T08:33:26;10.15;;;6.65;;
56161;SDS011;42045;52.986;6.014;2023-07-28T08:35:52;12.57;;;6.70;;
56161;SDS011;42045;52.986;6.014;2023-07-28T08:38:17;9.00;;;6.07;;
56161;SDS011;42045;52.986;6.014;2023-07-28T08:40:43;8.85;;;5.75;;
56161;SDS011;42045;52.986;6.014;2023-07-28T08:43:10;10.30;;;5.90;;
56161;SDS011;42045;52.986;6.014;2023-07-28T08:45:36;7.15;;;5.68;;
56161;SDS011;42045;52.986;6.014;2023-07-28T08:48:01;7.53;;;6.55;;
56161;SDS011;42045;52.986;6.014;2023-07-28T08:50:27;6.65;;;5.43;;
56161;SDS011;42045;52.986;6.014;2023-07-28T08:52:53;8.95;;;5.68;;
56161;SDS011;42045;52.986;6.014;2023-07-28T08:55:19;7.15;;;6.03;;
56161;SDS011;42045;52.986;6.014;2023-07-28T08:57:45;11.10;;;5.80;;
56161;SDS011;42045;52.986;6.014;2023-07-28T09:00:10;10.93;;;6.60;;
56161;SDS011;42045;52.986;6.014;2023-07-28T09:02:39;11.48;;;7.03;;
56161;SDS011;42045;52.986;6.014;2023-07-28T09:05:06;11.68;;;6.75;;
56161;SDS011;42045;52.986;6.014;2023-07-28T09:07:35;13.40;;;8.43;;
56161;SDS011;42045;52.986;6.014;2023-07-28T09:10:01;12.38;;;8.32;;
56161;SDS011;42045;52.986;6.014;2023-07-28T09:12:30;10.80;;;8.07;;
56161;SDS011;42045;52.986;6.014;2023-07-28T09:14:56;11.10;;;7.70;;
56161;SDS011;42045;52.986;6.014;2023-07-28T09:17:22;12.73;;;7.90;;
56161;SDS011;42045;52.986;6.014;2023-07-28T09:19:51;10.65;;;7.78;;
56161;SDS011;42045;52.986;6.014;2023-07-28T09:22:18;12.40;;;7.60;;
56161;SDS011;42045;52.986;6.014;2023-07-28T09:24:45;9.23;;;7.88;;
56161;SDS011;42045;52.986;6.014;2023-07-28T09:29:48;9.82;;;6.45;;
56161;SDS011;42045;52.986;6.014;2023-07-28T09:32:26;10.60;;;7.60;;
56161;SDS011;42045;52.986;6.014;2023-07-28T09:35:06;9.48;;;7.28;;
56161;SDS011;42045;52.986;6.014;2023-07-28T09:37:38;9.45;;;6.40;;
56161;SDS011;42045;52.986;6.014;2023-07-28T09:40:06;9.43;;;4.82;;
56161;SDS011;42045;52.986;6.014;2023-07-28T09:42:41;7.10;;;4.35;;
56161;SDS011;42045;52.986;6.014;2023-07-28T09:45:08;5.93;;;5.30;;
56161;SDS011;42045;52.986;6.014;2023-07-28T09:47:35;8.30;;;4.75;;
56161;SDS011;42045;52.986;6.014;2023-07-28T09:50:02;8.45;;;5.90;;
56161;SDS011;42045;52.986;6.014;2023-07-28T09:52:34;5.90;;;4.82;;
56161;SDS011;42045;52.986;6.014;2023-07-28T09:55:06;8.73;;;4.18;;
56161;SDS011;42045;52.986;6.014;2023-07-28T10:00:12;7.35;;;4.55;;
56161;SDS011;42045;52.986;6.014;2023-07-28T10:02:40;7.00;;;4.82;;
56161;SDS011;42045;52.986;6.014;2023-07-28T10:05:06;8.05;;;5.45;;
56161;SDS011;42045;52.986;6.014;2023-07-28T10:07:35;8.23;;;5.20;;
56161;SDS011;42045;52.986;6.014;2023-07-28T10:10:04;10.32;;;5.30;;
56161;SDS011;42045;52.986;6.014;2023-07-28T10:12:51;8.98;;;5.57;;
56161;SDS011;42045;52.986;6.014;2023-07-28T10:15:20;11.82;;;6.15;;
56161;SDS011;42045;52.986;6.014;2023-07-28T10:17:56;8.80;;;6.05;;
56161;SDS011;42045;52.986;6.014;2023-07-28T10:20:32;10.10;;;6.35;;
56161;SDS011;42045;52.986;6.014;2023-07-28T10:25:39;13.88;;;6.00;;
56161;SDS011;42045;52.986;6.014;2023-07-28T10:28:07;9.05;;;5.57;;
56161;SDS011;42045;52.986;6.014;2023-07-28T10:30:51;8.77;;;5.75;;
56161;SDS011;42045;52.986;6.014;2023-07-28T10:36:14;11.85;;;7.00;;
56161;SDS011;42045;52.986;6.014;2023-07-28T10:38:40;9.63;;;6.45;;
56161;SDS011;42045;52.986;6.014;2023-07-28T10:43:42;9.23;;;5.05;;
56161;SDS011;42045;52.986;6.014;2023-07-28T10:46:09;9.43;;;4.65;;
56161;SDS011;42045;52.986;6.014;2023-07-28T10:48:37;10.88;;;5.93;;
56161;SDS011;42045;52.986;6.014;2023-07-28T10:51:07;6.93;;;5.38;;
56161;SDS011;42045;52.986;6.014;2023-07-28T10:53:33;8.40;;;5.18;;
56161;SDS011;42045;52.986;6.014;2023-07-28T10:56:00;10.27;;;5.78;;
56161;SDS011;42045;52.986;6.014;2023-07-28T10:58:27;8.60;;;6.03;;
56161;SDS011;42045;52.986;6.014;2023-07-28T11:00:53;8.48;;;6.28;;
56161;SDS011;42045;52.986;6.014;2023-07-28T11:03:18;7.88;;;5.90;;
56161;SDS011;42045;52.986;6.014;2023-07-28T11:05:45;10.60;;;6.45;;
56161;SDS011;42045;52.986;6.014;2023-07-28T11:08:13;12.00;;;6.70;;
56161;SDS011;42045;52.986;6.014;2023-07-28T11:10:38;8.77;;;5.30;;
56161;SDS011;42045;52.986;6.014;2023-07-28T11:13:06;9.63;;;5.07;;
56161;SDS011;42045;52.986;6.014;2023-07-28T11:15:32;8.55;;;5.32;;
56161;SDS011;42045;52.986;6.014;2023-07-28T11:17:58;9.00;;;5.03;;
56161;SDS011;42045;52.986;6.014;2023-07-28T11:20:25;8.48;;;4.72;;
56161;SDS011;42045;52.986;6.014;2023-07-28T11:23:01;8.13;;;5.28;;
56161;SDS011;42045;52.986;6.014;2023-07-28T11:25:29;9.38;;;5.35;;
56161;SDS011;42045;52.986;6.014;2023-07-28T11:27:56;9.50;;;5.70;;
56161;SDS011;42045;52.986;6.014;2023-07-28T11:30:23;8.00;;;6.20;;
56161;SDS011;42045;52.986;6.014;2023-07-28T11:32:51;10.18;;;5.68;;
56161;SDS011;42045;52.986;6.014;2023-07-28T11:35:19;11.35;;;6.03;;
56161;SDS011;42045;52.986;6.014;2023-07-28T11:37:46;8.75;;;6.35;;
56161;SDS011;42045;52.986;6.014;2023-07-28T11:40:16;9.98;;;6.03;;
56161;SDS011;42045;52.986;6.014;2023-07-28T11:42:47;7.65;;;6.00;;
56161;SDS011;42045;52.986;6.014;2023-07-28T11:45:15;10.18;;;7.30;;
56161;SDS011;42045;52.986;6.014;2023-07-28T11:48:05;9.27;;;6.90;;
56161;SDS011;42045;52.986;6.014;2023-07-28T11:50:37;12.98;;;7.53;;
56161;SDS011;42045;52.986;6.014;2023-07-28T11:53:05;10.00;;;7.05;;
56161;SDS011;42045;52.986;6.014;2023-07-28T11:55:31;12.23;;;7.68;;
56161;SDS011;42045;52.986;6.014;2023-07-28T11:57:58;10.10;;;8.52;;
56161;SDS011;42045;52.986;6.014;2023-07-28T12:00:30;12.40;;;7.72;;
56161;SDS011;42045;52.986;6.014;2023-07-28T12:05:35;9.73;;;7.65;;
56161;SDS011;42045;52.986;6.014;2023-07-28T12:08:01;9.45;;;7.22;;
56161;SDS011;42045;52.986;6.014;2023-07-28T12:10:28;9.48;;;7.40;;
56161;SDS011;42045;52.986;6.014;2023-07-28T12:12:54;11.30;;;7.00;;
56161;SDS011;42045;52.986;6.014;2023-07-28T12:18:11;8.77;;;6.43;;
56161;SDS011;42045;52.986;6.014;2023-07-28T12:23:15;10.38;;;6.47;;
56161;SDS011;42045;52.986;6.014;2023-07-28T12:25:42;8.90;;;5.50;;
56161;SDS011;42045;52.986;6.014;2023-07-28T12:28:09;9.88;;;5.60;;
56161;SDS011;42045;52.986;6.014;2023-07-28T12:30:35;12.80;;;5.97;;
56161;SDS011;42045;52.986;6.014;2023-07-28T12:33:03;9.60;;;7.18;;
56161;SDS011;42045;52.986;6.014;2023-07-28T12:35:30;11.70;;;7.32;;
56161;SDS011;42045;52.986;6.014;2023-07-28T12:37:59;8.88;;;7.15;;
56161;SDS011;42045;52.986;6.014;2023-07-28T12:40:31;11.03;;;8.93;;
56161;SDS011;42045;52.986;6.014;2023-07-28T12:42:58;12.05;;;10.57;;
56161;SDS011;42045;52.986;6.014;2023-07-28T12:45:26;14.00;;;11.82;;
56161;SDS011;42045;52.986;6.014;2023-07-28T12:47:55;14.00;;;10.85;;
56161;SDS011;42045;52.986;6.014;2023-07-28T12:50:23;12.93;;;9.93;;
56161;SDS011;42045;52.986;6.014;2023-07-28T12:52:49;10.52;;;9.52;;
56161;SDS011;42045;52.986;6.014;2023-07-28T12:55:16;9.80;;;8.95;;
56161;SDS011;42045;52.986;6.014;2023-07-28T12:57:43;10.52;;;8.70;;
56161;SDS011;42045;52.986;6.014;2023-07-28T13:00:09;10.60;;;8.93;;
56161;SDS011;42045;52.986;6.014;2023-07-28T13:02:39;9.48;;;8.45;;
56161;SDS011;42045;52.986;6.014;2023-07-28T13:05:06;8.27;;;7.22;;
56161;SDS011;42045;52.986;6.014;2023-07-28T13:07:32;12.30;;;7.93;;
56161;SDS011;42045;52.986;6.014;2023-07-28T13:09:58;10.65;;;7.07;;
56161;SDS011;42045;52.986;6.014;2023-07-28T13:12:24;10.63;;;8.52;;
56161;SDS011;42045;52.986;6.014;2023-07-28T13:14:49;9.60;;;8.70;;
56161;SDS011;42045;52.986;6.014;2023-07-28T13:17:15;9.82;;;8.05;;
56161;SDS011;42045;52.986;6.014;2023-07-28T13:19:41;11.43;;;8.57;;
56161;SDS011;42045;52.986;6.014;2023-07-28T13:22:07;10.25;;;8.52;;
56161;SDS011;42045;52.986;6.014;2023-07-28T13:24:32;16.10;;;10.45;;
56161;SDS011;42045;52.986;6.014;2023-07-28T13:26:58;10.82;;;8.40;;
56161;SDS011;42045;52.986;6.014;2023-07-28T13:29:24;11.05;;;7.90;;
56161;SDS011;42045;52.986;6.014;2023-07-28T13:31:49;9.98;;;7.65;;
56161;SDS011;42045;52.986;6.014;2023-07-28T13:34:15;12.25;;;8.98;;
56161;SDS011;42045;52.986;6.014;2023-07-28T13:36:41;11.32;;;9.38;;
56161;SDS011;42045;52.986;6.014;2023-07-28T13:39:08;9.68;;;8.68;;
56161;SDS011;42045;52.986;6.014;2023-07-28T13:41:34;10.68;;;9.63;;
56161;SDS011;42045;52.986;6.014;2023-07-28T13:43:59;10.57;;;9.48;;
56161;SDS011;42045;52.986;6.014;2023-07-28T13:46:25;11.48;;;10.27;;
56161;SDS011;42045;52.986;6.014;2023-07-28T13:48:51;13.98;;;10.63;;
56161;SDS011;42045;52.986;6.014;2023-07-28T13:51:17;15.02;;;10.35;;
56161;SDS011;42045;52.986;6.014;2023-07-28T13:53:42;9.32;;;8.35;;
56161;SDS011;42045;52.986;6.014;2023-07-28T13:56:08;10.68;;;8.93;;
56161;SDS011;42045;52.986;6.014;2023-07-28T13:58:33;11.02;;;8.02;;
56161;SDS011;42045;52.986;6.014;2023-07-28T14:00:59;10.75;;;8.60;;
56161;SDS011;42045;52.986;6.014;2023-07-28T14:03:25;9.52;;;8.23;;
56161;SDS011;42045;52.986;6.014;2023-07-28T14:05:50;10.63;;;8.20;;
56161;SDS011;42045;52.986;6.014;2023-07-28T14:08:16;8.80;;;7.90;;
56161;SDS011;42045;52.986;6.014;2023-07-28T14:10:45;9.85;;;8.02;;
56161;SDS011;42045;52.986;6.014;2023-07-28T14:13:11;8.40;;;7.28;;
56161;SDS011;42045;52.986;6.014;2023-07-28T14:15:37;8.23;;;6.72;;
56161;SDS011;42045;52.986;6.014;2023-07-28T14:18:03;9.10;;;7.60;;
56161;SDS011;42045;52.986;6.014;2023-07-28T14:20:29;11.98;;;10.95;;
56161;SDS011;42045;52.986;6.014;2023-07-28T14:22:55;14.60;;;12.48;;
56161;SDS011;42045;52.986;6.014;2023-07-28T14:25:24;14.52;;;12.35;;
56161;SDS011;42045;52.986;6.014;2023-07-28T14:27:50;13.57;;;10.43;;
56161;SDS011;42045;52.986;6.014;2023-07-28T14:30:16;13.15;;;10.75;;
56161;SDS011;42045;52.986;6.014;2023-07-28T14:32:41;12.65;;;11.15;;
56161;SDS011;42045;52.986;6.014;2023-07-28T14:35:07;11.88;;;10.70;;
56161;SDS011;42045;52.986;6.014;2023-07-28T14:37:33;12.50;;;9.50;;
56161;SDS011;42045;52.986;6.014;2023-07-28T14:39:58;9.45;;;8.55;;
56161;SDS011;42045;52.986;6.014;2023-07-28T14:42:24;8.00;;;7.20;;
56161;SDS011;42045;52.986;6.014;2023-07-28T14:44:49;7.72;;;6.95;;
56161;SDS011;42045;52.986;6.014;2023-07-28T14:47:15;7.90;;;6.00;;
56161;SDS011;42045;52.986;6.014;2023-07-28T14:49:41;7.82;;;6.40;;
56161;SDS011;42045;52.986;6.014;2023-07-28T14:52:06;9.35;;;6.60;;
56161;SDS011;42045;52.986;6.014;2023-07-28T14:54:32;10.02;;;9.00;;
56161;SDS011;42045;52.986;6.014;2023-07-28T14:56:58;11.25;;;8.75;;
56161;SDS011;42045;52.986;6.014;2023-07-28T14:59:24;9.52;;;8.50;;